Time;durP1;ratioP1;P1;durP2;ratioP2;P2;SDS_P1;SDS_P2;PMS_P1;PMS_P2;Temp;Humidity;BMP_temperature;BMP_pressure;BME280_temperature;BME280_humidity;BME280_pressure;Samples;Min_cycle;Max_cycle;Signal;HPM_P1;HPM_P2
2023/12/20 00:02:08;;;;;;;9.18;1.02;;;7.60;99.90;;;;;;4976206;23;20163;-96
2023/12/20 00:04:12;;;;;;;2.97;0.88;;;7.60;99.90;;;;;;4975776;23;20153;-96
2023/12/20 00:06:13;;;;;;;0.77;0.65;;;7.80;99.90;;;;;;4977068;23;20172;-96
2023/12/20 00:08:32;;;;;;;3.67;0.60;;;7.60;99.90;;;;;;4975614;23;20217;-96
2023/12/20 00:10:33;;;;;;;4.00;0.75;;;7.60;99.90;;;;;;5024455;23;20165;-95
2023/12/20 00:12:34;;;;;;;5.63;0.70;;;7.70;99.90;;;;;;5000140;23;20265;-95
2023/12/20 00:14:35;;;;;;;3.28;0.82;;;7.60;99.90;;;;;;4975856;23;20160;-96
2023/12/20 00:16:39;;;;;;;0.52;0.35;;;7.60;99.90;;;;;;4977988;23;20163;-96
2023/12/20 00:18:42;;;;;;;1.58;0.63;;;7.60;99.90;;;;;;5000470;23;20159;-95
2023/12/20 00:20:43;;;;;;;3.20;0.75;;;7.60;99.90;;;;;;4976909;23;20199;-96
2023/12/20 00:22:54;;;;;;;3.55;0.77;;;7.60;99.90;;;;;;4977145;23;20183;-95
2023/12/20 00:24:58;;;;;;;1.20;0.45;;;7.60;99.90;;;;;;4999475;23;20183;-94
2023/12/20 00:27:16;;;;;;;4.03;0.82;;;7.50;99.90;;;;;;4955693;23;20489;-95
2023/12/20 00:29:20;;;;;;;6.60;0.98;;;7.20;99.90;;;;;;4977446;23;20204;-94
2023/12/20 00:31:29;;;;;;;7.13;1.52;;;7.10;99.90;;;;;;5000850;23;20151;-96
2023/12/20 00:33:30;;;;;;;6.47;0.88;;;7.00;99.90;;;;;;4976119;23;20623;-95
2023/12/20 00:35:36;;;;;;;3.58;0.90;;;6.90;99.90;;;;;;5024338;23;20250;-96
2023/12/20 00:37:40;;;;;;;7.40;0.95;;;6.90;99.90;;;;;;4978455;23;20161;-95
2023/12/20 00:39:43;;;;;;;1.70;0.50;;;7.00;99.90;;;;;;4977681;23;20188;-96
2023/12/20 00:41:49;;;;;;;0.88;0.25;;;7.00;99.90;;;;;;5002041;23;20151;-96
2023/12/20 00:43:52;;;;;;;2.10;0.20;;;7.20;99.90;;;;;;4978177;23;20148;-96
2023/12/20 00:45:55;;;;;;;2.38;0.70;;;7.20;99.90;;;;;;4976456;23;20180;-95
2023/12/20 00:47:56;;;;;;;1.13;0.68;;;7.20;99.90;;;;;;4978675;23;20167;-96
2023/12/20 00:49:58;;;;;;;8.35;0.65;;;7.40;99.90;;;;;;4999742;23;20235;-95
2023/12/20 00:52:02;;;;;;;4.85;0.77;;;7.20;99.90;;;;;;4978022;23;20188;-96
2023/12/20 00:54:20;;;;;;;6.18;1.08;;;7.00;99.90;;;;;;5003686;23;20152;-94
2023/12/20 00:56:27;;;;;;;2.60;0.70;;;7.10;99.90;;;;;;5001627;23;20591;-96
2023/12/20 00:58:29;;;;;;;5.85;0.40;;;7.10;99.90;;;;;;4979201;23;20172;-96
2023/12/20 01:00:39;;;;;;;1.95;0.98;;;7.00;99.90;;;;;;5025754;23;20278;-96
2023/12/20 01:02:46;;;;;;;3.28;1.13;;;6.90;99.90;;;;;;5005157;23;20155;-96
2023/12/20 01:04:47;;;;;;;1.90;0.80;;;6.90;99.90;;;;;;4979835;23;20646;-96
2023/12/20 01:06:48;;;;;;;2.95;1.05;;;6.90;99.90;;;;;;4977922;23;20235;-96
2023/12/20 01:09:11;;;;;;;7.85;1.48;;;6.90;99.90;;;;;;5003035;23;20159;-95
2023/12/20 01:11:12;;;;;;;9.43;1.75;;;6.70;99.90;;;;;;4976393;23;20436;-96
2023/12/20 01:13:21;;;;;;;7.37;1.30;;;6.70;99.90;;;;;;5002941;23;20148;-95
2023/12/20 01:15:25;;;;;;;3.15;1.30;;;6.50;99.90;;;;;;4980493;23;20183;-95
2023/12/20 01:17:37;;;;;;;1.73;0.73;;;6.50;99.90;;;;;;5028858;23;20186;-96
2023/12/20 01:19:38;;;;;;;6.88;1.40;;;6.60;99.90;;;;;;4955060;24;20233;-95
2023/12/20 01:21:56;;;;;;;2.70;0.82;;;6.50;99.90;;;;;;4979645;23;20168;-96
2023/12/20 01:23:59;;;;;;;0.88;0.40;;;6.40;99.90;;;;;;4978836;23;20171;-95
2023/12/20 01:26:02;;;;;;;1.90;1.10;;;6.50;99.90;;;;;;5001591;23;20179;-96
2023/12/20 01:28:10;;;;;;;5.18;1.33;;;6.40;99.90;;;;;;5000322;23;20226;-96
2023/12/20 01:30:15;;;;;;;7.28;1.73;;;6.40;99.90;;;;;;4979619;23;20235;-96
2023/12/20 01:32:16;;;;;;;3.00;0.83;;;6.40;99.90;;;;;;4978983;23;20537;-96
2023/12/20 01:34:18;;;;;;;2.77;0.50;;;6.50;99.90;;;;;;4978633;23;20159;-95
2023/12/20 01:36:29;;;;;;;2.80;1.08;;;6.40;99.90;;;;;;5001374;23;20179;-95
2023/12/20 01:38:30;;;;;;;3.78;1.00;;;6.40;99.90;;;;;;4978987;23;20157;-95
2023/12/20 01:40:36;;;;;;;3.53;0.93;;;6.20;99.90;;;;;;5001250;23;20286;-96
2023/12/20 01:42:38;;;;;;;15.10;1.35;;;6.10;99.90;;;;;;4977000;23;20588;-95
2023/12/20 01:44:39;;;;;;;7.67;1.53;;;6.20;99.90;;;;;;5002350;23;20166;-95
2023/12/20 01:46:47;;;;;;;1.90;0.73;;;6.20;99.90;;;;;;4979288;23;20180;-96
2023/12/20 01:48:56;;;;;;;3.45;1.10;;;6.20;99.90;;;;;;5025522;23;20255;-95
2023/12/20 01:51:09;;;;;;;7.10;1.03;;;6.10;99.90;;;;;;4977774;23;20157;-96
2023/12/20 01:53:24;;;;;;;6.73;1.40;;;6.30;99.90;;;;;;5000497;23;20167;-95
2023/12/20 01:55:37;;;;;;;2.50;1.17;;;6.30;99.90;;;;;;5001506;23;20179;-96
2023/12/20 01:57:47;;;;;;;2.45;0.82;;;6.40;99.90;;;;;;5028715;23;20594;-94
2023/12/20 01:59:53;;;;;;;7.93;1.08;;;6.50;99.90;;;;;;5026420;23;20190;-95
2023/12/20 02:01:57;;;;;;;11.23;1.23;;;6.50;99.90;;;;;;4957325;23;20169;-96
2023/12/20 02:04:00;;;;;;;6.90;0.77;;;6.40;99.90;;;;;;5002175;23;20160;-96
2023/12/20 02:06:07;;;;;;;2.50;1.20;;;6.40;99.90;;;;;;5028773;23;20217;-95
2023/12/20 02:08:17;;;;;;;5.07;1.20;;;6.40;99.90;;;;;;4982175;23;20163;-95
2023/12/20 02:10:18;;;;;;;3.65;1.50;;;6.40;99.90;;;;;;4977392;23;20628;-95
2023/12/20 02:12:40;;;;;;;0.95;0.57;;;6.30;99.90;;;;;;4956526;23;20161;-95
2023/12/20 02:14:43;;;;;;;3.15;0.98;;;6.40;99.90;;;;;;5005659;23;20160;-95
2023/12/20 02:16:57;;;;;;;3.27;0.50;;;6.40;99.90;;;;;;5006302;23;20603;-96
2023/12/20 02:19:16;;;;;;;1.55;0.90;;;6.40;99.90;;;;;;5001454;23;20160;-96
2023/12/20 02:21:17;;;;;;;4.03;0.80;;;6.50;99.90;;;;;;5001655;23;20196;-96
2023/12/20 02:23:20;;;;;;;1.48;0.28;;;6.40;99.90;;;;;;5001226;23;20152;-95
2023/12/20 02:25:24;;;;;;;3.47;1.23;;;6.40;99.90;;;;;;4978631;23;20215;-96
2023/12/20 02:27:34;;;;;;;5.63;1.07;;;6.50;99.90;;;;;;5002941;23;20162;-95
2023/12/20 02:29:36;;;;;;;7.17;1.03;;;6.50;99.90;;;;;;4979789;23;20160;-96
2023/12/20 02:31:46;;;;;;;1.70;0.80;;;6.50;99.90;;;;;;4978597;23;20615;-95
2023/12/20 02:33:55;;;;;;;2.35;0.82;;;6.40;99.90;;;;;;5003018;23;20152;-95
2023/12/20 02:36:04;;;;;;;3.33;0.50;;;6.30;99.90;;;;;;4978723;23;20235;-96
2023/12/20 02:38:06;;;;;;;4.50;1.50;;;6.20;99.90;;;;;;5028027;23;20567;-96
2023/12/20 02:40:11;;;;;;;4.43;1.23;;;6.30;99.90;;;;;;4982940;23;20192;-96
2023/12/20 02:42:19;;;;;;;1.87;0.73;;;6.20;99.90;;;;;;5028673;23;20150;-96
2023/12/20 02:44:47;;;;;;;10.10;1.50;;;6.30;99.90;;;;;;4984140;23;20156;-96
2023/12/20 02:46:49;;;;;;;11.07;1.20;;;6.30;99.90;;;;;;4960738;23;20608;-96
2023/12/20 02:48:53;;;;;;;3.60;1.20;;;6.50;99.90;;;;;;5027576;23;20159;-96
2023/12/20 02:50:55;;;;;;;2.22;0.98;;;6.40;99.90;;;;;;5008275;23;20624;-94
2023/12/20 02:53:19;;;;;;;2.53;0.70;;;6.40;99.90;;;;;;4985355;23;20165;-96
2023/12/20 02:55:23;;;;;;;14.30;1.42;;;6.50;99.90;;;;;;4978691;23;20259;-96
2023/12/20 02:57:27;;;;;;;3.93;1.57;;;6.50;99.90;;;;;;4993445;23;20625;-96
2023/12/20 02:59:36;;;;;;;1.10;0.60;;;6.50;99.90;;;;;;5004083;23;20184;-96
2023/12/20 03:01:46;;;;;;;7.78;1.23;;;6.70;99.90;;;;;;4981542;23;20152;-95
2023/12/20 03:03:48;;;;;;;5.47;1.02;;;6.70;99.90;;;;;;5026321;23;20180;-96
2023/12/20 03:05:56;;;;;;;2.05;1.02;;;6.60;99.90;;;;;;5003887;23;20159;-95
2023/12/20 03:08:13;;;;;;;1.10;0.50;;;6.70;99.90;;;;;;4983871;23;20156;-94
2023/12/20 03:10:24;;;;;;;7.32;0.57;;;6.70;99.90;;;;;;5006920;23;20156;-96
2023/12/20 03:12:40;;;;;;;;;;;;;;;;;;;;;
2023/12/20 03:15:04;;;;;;;3.23;0.40;;;6.80;99.90;;;;;;5011870;23;20594;-95
2023/12/20 03:17:17;;;;;;;2.45;0.70;;;6.80;99.90;;;;;;4982230;23;20156;-96
2023/12/20 03:19:26;;;;;;;3.00;1.13;;;6.80;99.90;;;;;;4982802;23;20189;-96
2023/12/20 03:21:40;;;;;;;5.50;0.87;;;6.80;99.90;;;;;;5004301;23;20163;-96
2023/12/20 03:23:49;;;;;;;15.53;1.10;;;6.80;99.90;;;;;;5005201;23;20151;-96
2023/12/20 03:26:03;;;;;;;4.63;0.90;;;6.70;99.90;;;;;;5027166;23;20175;-96
2023/12/20 03:28:13;;;;;;;7.25;1.00;;;6.90;99.90;;;;;;4982413;23;20184;-94
2023/12/20 03:30:15;;;;;;;1.98;0.43;;;6.90;99.90;;;;;;5002034;23;20602;-95
2023/12/20 03:32:26;;;;;;;1.42;0.47;;;7.00;99.90;;;;;;5000893;23;20215;-96
2023/12/20 03:34:30;;;;;;;1.13;0.60;;;7.00;99.90;;;;;;5001289;23;20188;-95
2023/12/20 03:36:31;;;;;;;4.07;0.65;;;6.90;99.90;;;;;;5000714;23;20227;-94
2023/12/20 03:38:36;;;;;;;5.70;1.00;;;6.90;99.90;;;;;;4977254;23;20176;-95
2023/12/20 03:40:40;;;;;;;0.75;0.65;;;6.80;99.90;;;;;;5001077;23;20717;-95
2023/12/20 03:42:50;;;;;;;6.80;0.70;;;6.80;99.90;;;;;;4977573;23;20610;-96
2023/12/20 03:44:58;;;;;;;12.25;0.95;;;6.80;99.90;;;;;;4979253;23;20156;-95
2023/12/20 03:47:14;;;;;;;4.50;0.63;;;6.80;99.90;;;;;;4979280;23;20193;-95
2023/12/20 03:49:27;;;;;;;2.63;0.93;;;6.80;99.90;;;;;;5002025;23;20687;-95
2023/12/20 03:51:31;;;;;;;9.60;1.23;;;6.70;99.90;;;;;;4978346;23;20159;-96
2023/12/20 03:53:54;;;;;;;0.57;0.57;;;6.70;99.90;;;;;;4983574;23;20160;-96
2023/12/20 03:55:59;;;;;;;3.53;0.85;;;6.70;99.90;;;;;;4983816;23;20172;-95
2023/12/20 03:58:00;;;;;;;12.37;1.17;;;6.70;99.90;;;;;;5010388;23;20167;-95
2023/12/20 04:00:05;;;;;;;6.00;1.63;;;6.70;99.90;;;;;;4985913;23;20282;-95
2023/12/20 04:02:17;;;;;;;5.90;0.63;;;6.80;99.90;;;;;;5009926;23;20166;-96
2023/12/20 04:04:29;;;;;;;10.30;1.60;;;6.80;99.90;;;;;;4979654;23;20172;-96
2023/12/20 04:06:41;;;;;;;3.70;1.23;;;6.80;99.90;;;;;;5002711;23;20234;-96
2023/12/20 04:08:45;;;;;;;4.03;0.82;;;6.80;99.90;;;;;;5004426;23;20159;-96
2023/12/20 04:10:47;;;;;;;21.10;2.10;;;6.80;99.90;;;;;;4956536;23;20161;-95
2023/12/20 04:12:59;;;;;;;4.35;0.80;;;6.70;99.90;;;;;;5002312;23;20155;-95
2023/12/20 04:15:09;;;;;;;3.28;1.23;;;6.60;99.90;;;;;;5024292;23;20182;-96
2023/12/20 04:17:27;;;;;;;1.60;0.70;;;6.70;99.90;;;;;;4981116;23;20152;-95
2023/12/20 04:19:28;;;;;;;2.57;0.40;;;6.50;99.90;;;;;;4954710;24;20200;-95
2023/12/20 04:21:30;;;;;;;1.48;0.50;;;6.50;99.90;;;;;;4999422;23;20159;-95
2023/12/20 04:23:31;;;;;;;5.35;0.75;;;6.50;99.90;;;;;;4977728;23;20160;-96
2023/12/20 04:25:32;;;;;;;8.30;0.53;;;6.50;99.90;;;;;;4976454;23;20180;-96
2023/12/20 04:27:33;;;;;;;0.50;0.40;;;6.50;99.90;;;;;;5000881;23;20215;-95
2023/12/20 04:29:34;;;;;;;0.50;0.50;;;6.50;99.90;;;;;;4976206;23;20176;-96
2023/12/20 04:31:35;;;;;;;4.67;1.03;;;6.50;99.90;;;;;;4977165;23;20239;-95
2023/12/20 04:33:36;;;;;;;3.08;1.00;;;6.50;99.90;;;;;;4976277;23;20156;-95
2023/12/20 04:35:37;;;;;;;5.70;1.37;;;6.40;99.90;;;;;;4978828;23;20183;-96
2023/12/20 04:37:54;;;;;;;3.10;1.00;;;6.40;99.90;;;;;;4977694;23;20612;-95
2023/12/20 04:39:55;;;;;;;13.50;5.67;;;6.50;99.90;;;;;;4976512;23;20659;-95
2023/12/20 04:41:56;;;;;;;13.88;5.78;;;6.50;99.90;;;;;;4999437;23;20155;-95
2023/12/20 04:43:57;;;;;;;18.97;8.37;;;6.60;99.90;;;;;;4977136;23;20160;-94
2023/12/20 04:45:59;;;;;;;37.67;13.90;;;6.50;99.90;;;;;;5002817;23;20172;-96
2023/12/20 04:48:02;;;;;;;22.47;11.70;;;6.60;99.90;;;;;;5001226;23;20175;-95
2023/12/20 04:50:13;;;;;;;7.47;3.95;;;6.60;99.90;;;;;;4977812;23;20152;-95
2023/12/20 04:52:19;;;;;;;14.77;3.55;;;6.60;99.90;;;;;;5002185;23;20158;-96
2023/12/20 04:54:27;;;;;;;7.45;4.50;;;6.60;99.90;;;;;;4977017;23;20159;-95
2023/12/20 04:56:28;;;;;;;5.45;2.10;;;6.50;99.90;;;;;;5001080;23;20175;-96
2023/12/20 04:58:40;;;;;;;10.25;0.77;;;6.60;99.90;;;;;;5002814;23;20171;-95
2023/12/20 05:00:44;;;;;;;9.52;2.42;;;6.60;99.90;;;;;;4976891;23;20661;-95
2023/12/20 05:02:45;;;;;;;1.75;0.70;;;6.50;99.90;;;;;;5000928;23;20200;-95
2023/12/20 05:04:49;;;;;;;2.05;0.75;;;6.50;99.90;;;;;;4977345;23;20527;-95
2023/12/20 05:06:58;;;;;;;4.05;0.82;;;6.50;99.90;;;;;;4978154;23;20239;-94
2023/12/20 05:09:04;;;;;;;4.70;0.83;;;6.50;99.90;;;;;;4977902;23;20169;-96
2023/12/20 05:11:05;;;;;;;3.47;1.13;;;6.50;99.90;;;;;;5001349;23;20163;-96
2023/12/20 05:13:09;;;;;;;5.87;0.97;;;6.30;99.90;;;;;;4976160;23;20160;-96
2023/12/20 05:15:09;;;;;;;5.22;2.08;;;6.30;99.90;;;;;;4977243;23;20179;-96
2023/12/20 05:17:13;;;;;;;5.97;1.57;;;6.20;99.90;;;;;;5001275;23;20164;-95
2023/12/20 05:19:14;;;;;;;5.40;1.90;;;6.20;99.90;;;;;;5000673;23;20152;-94
2023/12/20 05:21:17;;;;;;;5.87;2.00;;;6.10;99.90;;;;;;5000454;23;20193;-94
2023/12/20 05:23:21;;;;;;;4.87;2.53;;;6.00;99.90;;;;;;5023430;23;20148;-94
2023/12/20 05:25:24;;;;;;;6.57;0.80;;;6.00;99.90;;;;;;4976460;23;20232;-96
2023/12/20 05:27:26;;;;;;;2.57;0.70;;;5.90;99.90;;;;;;5001776;23;20499;-96
2023/12/20 05:29:29;;;;;;;8.67;1.70;;;5.90;99.90;;;;;;4976985;23;20172;-95
2023/12/20 05:31:33;;;;;;;3.53;0.90;;;5.90;99.90;;;;;;4977432;23;20603;-95
2023/12/20 05:33:34;;;;;;;3.70;0.83;;;5.90;99.90;;;;;;4977990;23;20160;-95
2023/12/20 05:35:38;;;;;;;6.70;1.40;;;5.90;99.90;;;;;;5000586;23;20236;-95
2023/12/20 05:37:39;;;;;;;10.53;0.97;;;5.80;99.90;;;;;;4976814;23;20156;-95
2023/12/20 05:39:40;;;;;;;4.90;1.53;;;5.80;99.90;;;;;;5000186;23;20203;-95
2023/12/20 05:41:41;;;;;;;8.00;1.03;;;5.80;99.90;;;;;;4976159;23;20156;-94
2023/12/20 05:43:42;;;;;;;29.50;1.23;;;5.70;99.90;;;;;;4999889;23;20159;-95
2023/12/20 05:45:44;;;;;;;3.10;1.23;;;5.70;99.90;;;;;;4999955;23;20183;-96
2023/12/20 05:47:45;;;;;;;9.23;1.03;;;5.70;99.90;;;;;;4976277;23;20157;-94
2023/12/20 05:49:50;;;;;;;4.37;1.30;;;5.70;99.90;;;;;;4998947;23;20160;-96
2023/12/20 05:51:51;;;;;;;8.43;1.23;;;5.70;99.90;;;;;;4976501;23;20152;-96
2023/12/20 05:53:52;;;;;;;7.27;1.10;;;5.80;99.90;;;;;;4976148;23;20148;-96
2023/12/20 05:55:53;;;;;;;1.70;0.73;;;5.80;99.90;;;;;;4977154;23;20187;-95
2023/12/20 05:57:56;;;;;;;4.53;1.60;;;5.80;99.90;;;;;;5000210;23;20155;-95
2023/12/20 05:59:57;;;;;;;13.20;2.37;;;5.80;99.90;;;;;;4976394;23;20200;-95
2023/12/20 06:02:04;;;;;;;7.37;2.67;;;5.90;99.90;;;;;;4999636;23;20152;-94
2023/12/20 06:04:10;;;;;;;15.87;1.83;;;5.90;99.90;;;;;;4977804;23;20152;-95
2023/12/20 06:06:16;;;;;;;15.47;5.17;;;5.90;99.90;;;;;;4978707;23;20735;-96
2023/12/20 06:08:17;;;;;;;23.03;7.70;;;5.80;99.90;;;;;;4999691;23;20189;-95
2023/12/20 06:10:18;;;;;;;16.43;5.97;;;5.90;99.90;;;;;;4975483;23;20600;-94
2023/12/20 06:12:19;;;;;;;6.73;1.73;;;5.80;99.90;;;;;;4999798;23;20684;-95
2023/12/20 06:14:20;;;;;;;1.87;1.33;;;5.90;99.90;;;;;;4999646;23;20159;-94
2023/12/20 06:16:21;;;;;;;8.40;1.40;;;6.00;99.90;;;;;;4975459;23;20176;-94
2023/12/20 06:18:22;;;;;;;10.13;1.77;;;6.10;99.90;;;;;;4999506;23;20155;-95
2023/12/20 06:20:23;;;;;;;6.43;1.20;;;6.20;99.90;;;;;;4999354;23;20192;-94
2023/12/20 06:22:30;;;;;;;2.33;0.47;;;6.20;99.90;;;;;;4998651;23;20159;-96
2023/12/20 06:24:33;;;;;;;6.40;0.50;;;6.20;99.90;;;;;;4999269;23;20228;-96
2023/12/20 06:26:34;;;;;;;1.93;0.40;;;6.30;99.90;;;;;;4975762;23;20516;-94
2023/12/20 06:28:35;;;;;;;0.70;0.40;;;6.30;99.90;;;;;;4999375;23;20208;-95
2023/12/20 06:30:39;;;;;;;8.47;0.67;;;6.20;99.90;;;;;;4975754;23;20252;-96
2023/12/20 06:32:42;;;;;;;3.17;0.60;;;6.20;99.90;;;;;;4976024;23;20153;-96
2023/12/20 06:34:43;;;;;;;4.43;1.13;;;6.10;99.90;;;;;;4975579;23;20156;-95
2023/12/20 06:36:43;;;;;;;5.40;1.03;;;5.90;99.90;;;;;;4975710;23;20501;-95
2023/12/20 06:38:45;;;;;;;4.87;1.50;;;5.90;99.90;;;;;;4975856;23;20160;-95
2023/12/20 06:40:45;;;;;;;12.18;4.25;;;5.90;99.90;;;;;;4975763;23;20192;-94
2023/12/20 06:42:46;;;;;;;9.57;0.73;;;5.90;99.90;;;;;;4975385;23;20227;-95
2023/12/20 06:44:47;;;;;;;6.82;0.98;;;5.90;99.90;;;;;;4975198;23;20168;-95
2023/12/20 06:46:48;;;;;;;3.83;1.20;;;5.90;99.90;;;;;;5022229;23;20158;-95
2023/12/20 06:48:49;;;;;;;5.35;0.88;;;5.90;99.90;;;;;;4975180;23;20591;-95
2023/12/20 06:50:50;;;;;;;5.33;1.03;;;5.90;99.90;;;;;;4998834;23;20156;-95
2023/12/20 06:52:52;;;;;;;5.57;1.53;;;5.80;99.90;;;;;;4975399;23;20197;-95
2023/12/20 06:54:53;;;;;;;3.53;2.47;;;5.80;99.90;;;;;;4975106;23;20497;-94
2023/12/20 06:56:54;;;;;;;6.68;0.63;;;5.80;99.90;;;;;;4975521;23;20269;-95
2023/12/20 06:58:55;;;;;;;10.33;3.07;;;5.70;99.90;;;;;;4975056;23;20603;-95
2023/12/20 07:00:55;;;;;;;8.60;0.77;;;5.70;99.90;;;;;;4975251;23;20199;-94
2023/12/20 07:02:56;;;;;;;5.43;1.42;;;5.70;99.90;;;;;;4975025;23;20149;-95
2023/12/20 07:04:57;;;;;;;5.17;1.47;;;5.80;99.90;;;;;;4975522;23;20176;-95
2023/12/20 07:07:00;;;;;;;2.50;1.17;;;5.60;99.90;;;;;;4975117;23;20183;-94
2023/12/20 07:09:01;;;;;;;3.10;0.63;;;5.60;99.90;;;;;;4975272;23;20650;-96
2023/12/20 07:11:02;;;;;;;1.13;0.70;;;5.60;99.90;;;;;;4975051;23;20161;-94
2023/12/20 07:13:03;;;;;;;2.53;0.63;;;5.50;99.90;;;;;;4974886;23;20486;-94
2023/12/20 07:15:05;;;;;;;4.43;1.00;;;5.50;99.90;;;;;;4975660;23;20182;-94
2023/12/20 07:17:11;;;;;;;8.43;2.70;;;5.50;99.90;;;;;;4975713;23;20231;-95
2023/12/20 07:19:12;;;;;;;2.23;0.83;;;5.60;99.90;;;;;;4974909;23;20156;-94
2023/12/20 07:21:13;;;;;;;9.67;4.73;;;5.60;99.90;;;;;;4999058;23;20250;-94
2023/12/20 07:23:13;;;;;;;7.47;1.40;;;5.70;99.90;;;;;;4975703;23;20164;-95
2023/12/20 07:25:14;;;;;;;6.30;1.00;;;5.60;99.90;;;;;;4975554;23;20172;-95
2023/12/20 07:27:16;;;;;;;1.30;0.67;;;5.60;99.90;;;;;;4975058;23;20164;-94
2023/12/20 07:29:17;;;;;;;11.33;1.00;;;5.50;99.90;;;;;;4975522;23;20200;-94
2023/12/20 07:31:18;;;;;;;1.43;0.50;;;5.50;99.90;;;;;;4998731;23;20175;-93
2023/12/20 07:33:18;;;;;;;2.77;1.00;;;5.40;99.90;;;;;;4975299;23;20156;-96
2023/12/20 07:35:19;;;;;;;13.17;2.77;;;5.50;99.90;;;;;;4976456;23;20640;-94
2023/12/20 07:37:20;;;;;;;13.80;4.20;;;5.50;99.90;;;;;;4975925;23;20663;-93
2023/12/20 07:39:21;;;;;;;6.13;2.03;;;5.50;99.90;;;;;;4999189;23;20231;-94
2023/12/20 07:41:23;;;;;;;17.53;4.13;;;5.50;99.90;;;;;;4998564;23;20156;-95
2023/12/20 07:43:24;;;;;;;3.50;1.97;;;5.40;99.90;;;;;;4975066;23;20192;-96
2023/12/20 07:45:25;;;;;;;4.17;1.00;;;5.50;99.90;;;;;;4974782;23;20215;-94
2023/12/20 07:47:26;;;;;;;1.90;0.90;;;5.50;99.90;;;;;;4975283;23;20152;-95
2023/12/20 07:49:27;;;;;;;2.07;1.53;;;5.50;99.90;;;;;;4998217;23;20191;-94
2023/12/20 07:51:28;;;;;;;2.97;0.90;;;5.60;99.90;;;;;;4974937;23;20163;-93
2023/12/20 07:53:29;;;;;;;16.83;1.57;;;5.60;99.90;;;;;;4974810;23;20461;-96
2023/12/20 07:55:31;;;;;;;4.33;1.10;;;5.70;99.90;;;;;;4975240;23;20180;-95
2023/12/20 07:57:31;;;;;;;6.80;0.63;;;5.60;99.90;;;;;;4975166;23;20470;-95
2023/12/20 07:59:32;;;;;;;1.17;0.73;;;5.50;99.90;;;;;;4998119;23;20320;-94
2023/12/20 08:01:33;;;;;;;5.20;0.77;;;5.50;99.90;;;;;;4974665;23;20148;-95
2023/12/20 08:03:34;;;;;;;5.50;1.30;;;5.70;99.90;;;;;;4974492;23;20187;-96
2023/12/20 08:05:35;;;;;;;7.73;0.67;;;5.60;99.90;;;;;;4974565;23;20720;-94
2023/12/20 08:07:36;;;;;;;2.23;0.77;;;5.60;99.90;;;;;;4974885;23;20208;-94
2023/12/20 08:09:37;;;;;;;4.00;1.23;;;5.60;99.90;;;;;;4975084;23;20592;-95
2023/12/20 08:11:38;;;;;;;2.90;0.93;;;5.60;99.90;;;;;;4998478;23;20155;-94
2023/12/20 08:13:39;;;;;;;8.50;2.40;;;5.60;99.90;;;;;;4974670;23;20253;-94
2023/12/20 08:15:40;;;;;;;12.13;1.40;;;5.70;99.90;;;;;;4975148;23;20187;-96
2023/12/20 08:17:42;;;;;;;4.97;1.63;;;5.80;99.90;;;;;;4975511;23;20152;-94
2023/12/20 08:19:43;;;;;;;6.47;3.30;;;5.80;99.90;;;;;;4974531;23;20740;-95
2023/12/20 08:21:43;;;;;;;18.37;3.33;;;5.90;99.90;;;;;;4974453;23;20152;-94
2023/12/20 08:23:45;;;;;;;13.43;4.33;;;6.10;99.90;;;;;;4974312;23;20179;-96
2023/12/20 08:25:46;;;;;;;8.20;1.97;;;6.20;99.90;;;;;;4974076;23;20172;-94
2023/12/20 08:27:46;;;;;;;6.20;2.40;;;6.30;99.90;;;;;;4997880;23;20544;-94
2023/12/20 08:29:49;;;;;;;7.60;2.10;;;6.40;99.90;;;;;;4974401;23;20157;-94
2023/12/20 08:31:54;;;;;;;11.10;4.30;;;6.40;99.90;;;;;;4974577;23;20551;-95
2023/12/20 08:33:55;;;;;;;6.10;1.90;;;6.40;99.90;;;;;;4997703;23;20160;-95
2023/12/20 08:35:55;;;;;;;3.40;0.57;;;6.60;99.90;;;;;;4975022;23;20184;-94
2023/12/20 08:37:56;;;;;;;2.50;0.70;;;6.60;99.90;;;;;;4975774;23;20153;-96
2023/12/20 08:39:57;;;;;;;12.65;2.08;;;6.60;99.90;;;;;;5000132;23;20219;-93
2023/12/20 08:41:58;;;;;;;11.40;0.73;;;6.60;99.90;;;;;;5003127;23;20207;-95
2023/12/20 08:43:59;;;;;;;5.93;0.80;;;6.60;99.90;;;;;;4980217;23;20160;-95
2023/12/20 08:46:00;;;;;;;16.52;5.78;;;6.60;99.90;;;;;;4980227;23;20191;-95
2023/12/20 08:48:01;;;;;;;4.13;1.77;;;6.60;99.90;;;;;;5001310;23;20218;-93
2023/12/20 08:50:03;;;;;;;7.50;1.90;;;6.60;99.90;;;;;;4974377;23;20247;-95
2023/12/20 08:52:04;;;;;;;3.53;1.13;;;6.60;99.90;;;;;;4974648;23;20595;-94
2023/12/20 08:54:07;;;;;;;3.57;0.87;;;6.60;99.90;;;;;;4975052;23;20183;-96
2023/12/20 08:56:08;;;;;;;2.67;1.33;;;6.70;99.90;;;;;;4974752;23;20240;-94
2023/12/20 08:58:09;;;;;;;3.53;1.00;;;6.90;99.90;;;;;;4997893;23;20226;-95
2023/12/20 09:00:11;;;;;;;3.53;0.68;;;6.90;99.90;;;;;;4974857;23;20230;-95
2023/12/20 09:02:12;;;;;;;6.20;1.63;;;7.10;99.90;;;;;;4974243;23;20235;-96
2023/12/20 09:04:13;;;;;;;3.90;0.68;;;7.10;99.90;;;;;;4974566;23;20157;-93
2023/12/20 09:06:13;;;;;;;6.20;1.58;;;7.10;99.90;;;;;;4997976;23;20262;-96
2023/12/20 09:08:14;;;;;;;3.93;1.10;;;7.10;99.90;;;;;;4997645;23;20151;-95
2023/12/20 09:10:15;;;;;;;2.28;0.85;;;7.20;99.90;;;;;;4974430;23;20192;-94
2023/12/20 09:12:21;;;;;;;8.27;0.95;;;7.20;99.90;;;;;;4974748;23;20156;-94
2023/12/20 09:14:22;;;;;;;5.30;0.70;;;7.30;99.90;;;;;;4974256;23;20221;-94
2023/12/20 09:16:23;;;;;;;2.67;0.55;;;7.40;99.90;;;;;;4974432;23;20266;-94
2023/12/20 09:18:24;;;;;;;10.85;2.53;;;7.60;99.90;;;;;;4974316;23;20157;-95
2023/12/20 09:20:25;;;;;;;1.52;0.60;;;7.50;99.90;;;;;;4974404;23;20191;-95
2023/12/20 09:22:26;;;;;;;3.65;0.32;;;7.40;99.90;;;;;;4974397;23;20320;-95
2023/12/20 09:24:27;;;;;;;4.32;0.98;;;7.50;99.90;;;;;;4997608;23;20159;-96
2023/12/20 09:26:27;;;;;;;7.05;0.98;;;7.50;99.90;;;;;;4974036;23;20204;-94
2023/12/20 09:28:28;;;;;;;4.72;1.42;;;7.60;99.90;;;;;;4974188;23;20251;-96
2023/12/20 09:30:29;;;;;;;6.53;0.90;;;7.50;99.90;;;;;;4973968;23;20621;-94
2023/12/20 09:32:30;;;;;;;4.03;0.30;;;7.60;99.90;;;;;;4974040;23;20160;-95
2023/12/20 09:34:31;;;;;;;7.40;0.82;;;7.70;99.90;;;;;;4974238;23;20156;-94
2023/12/20 09:36:35;;;;;;;7.10;0.98;;;7.90;99.90;;;;;;4974104;23;20173;-95
2023/12/20 09:38:36;;;;;;;5.40;0.57;;;7.80;99.90;;;;;;4975841;23;20156;-94
2023/12/20 09:40:41;;;;;;;6.18;1.20;;;7.90;99.90;;;;;;4975712;23;20224;-94
2023/12/20 09:43:10;;;;;;;5.45;0.50;;;8.10;99.90;;;;;;4999290;23;20147;-95
2023/12/20 09:45:15;;;;;;;1.00;0.20;;;7.90;99.90;;;;;;4975961;23;20172;-94
2023/12/20 09:47:20;;;;;;;5.90;0.85;;;7.80;99.90;;;;;;4975710;23;20159;-94
2023/12/20 09:49:22;;;;;;;5.88;0.30;;;7.70;99.90;;;;;;4975607;23;20167;-95
2023/12/20 09:51:23;;;;;;;1.45;0.80;;;7.70;99.90;;;;;;4998932;23;20152;-94
2023/12/20 09:53:29;;;;;;;3.45;0.40;;;7.80;99.90;;;;;;4976308;23;20168;-95
2023/12/20 09:55:32;;;;;;;4.75;0.38;;;7.70;99.90;;;;;;4975697;23;20172;-94
2023/12/20 09:57:33;;;;;;;2.72;0.82;;;7.70;99.90;;;;;;4975958;23;20593;-96
2023/12/20 09:59:34;;;;;;;1.65;0.77;;;7.90;99.90;;;;;;4999184;23;20195;-94
2023/12/20 10:01:38;;;;;;;7.03;0.75;;;7.70;99.90;;;;;;4999426;23;20166;-95
2023/12/20 10:03:41;;;;;;;4.88;1.08;;;7.80;99.90;;;;;;4976164;23;20157;-94
2023/12/20 10:05:44;;;;;;;4.95;0.93;;;7.60;99.90;;;;;;4975828;23;20183;-95
2023/12/20 10:07:46;;;;;;;0.90;0.43;;;7.60;99.90;;;;;;4976445;23;20160;-94
2023/12/20 10:09:49;;;;;;;1.73;0.65;;;7.60;99.90;;;;;;4976354;23;20163;-94
2023/12/20 10:11:54;;;;;;;1.70;0.80;;;7.60;99.90;;;;;;4999301;23;20268;-94
2023/12/20 10:14:02;;;;;;;5.50;0.80;;;7.70;99.90;;;;;;4976149;23;20160;-94
2023/12/20 10:16:03;;;;;;;3.05;0.60;;;7.60;99.90;;;;;;4975906;23;20172;-95
2023/12/20 10:18:05;;;;;;;3.38;0.35;;;7.70;99.90;;;;;;4999302;23;20152;-94
2023/12/20 10:20:09;;;;;;;1.83;0.55;;;7.80;99.90;;;;;;4975831;23;20214;-95
2023/12/20 10:22:10;;;;;;;3.17;0.43;;;7.80;99.90;;;;;;4998872;23;20154;-94
2023/12/20 10:24:17;;;;;;;7.38;0.60;;;7.80;99.90;;;;;;4975486;23;20152;-94
2023/12/20 10:26:27;;;;;;;5.57;0.85;;;7.80;99.90;;;;;;4975628;23;20172;-94
2023/12/20 10:28:34;;;;;;;6.53;0.85;;;7.90;99.90;;;;;;4975576;23;20279;-94
2023/12/20 10:30:35;;;;;;;1.20;0.30;;;8.00;99.90;;;;;;4998835;23;20160;-95
2023/12/20 10:32:36;;;;;;;3.10;0.40;;;8.00;99.90;;;;;;4975411;23;20199;-95
2023/12/20 10:34:37;;;;;;;4.68;0.47;;;8.10;99.90;;;;;;4975246;23;20160;-95
2023/12/20 10:36:38;;;;;;;9.15;0.93;;;8.20;99.90;;;;;;4999482;23;20244;-93
2023/12/20 10:38:42;;;;;;;2.67;0.80;;;8.20;99.90;;;;;;4976197;23;20458;-95
2023/12/20 10:40:46;;;;;;;3.17;0.60;;;8.10;99.90;;;;;;4976061;23;20639;-95
2023/12/20 10:42:48;;;;;;;2.72;0.70;;;8.10;99.90;;;;;;4976471;23;20152;-95
2023/12/20 10:44:53;;;;;;;1.05;0.40;;;8.20;99.90;;;;;;4976491;23;20156;-95
2023/12/20 10:46:58;;;;;;;3.08;0.98;;;8.10;99.90;;;;;;4976148;23;20144;-94
2023/12/20 10:49:01;;;;;;;3.40;0.95;;;8.20;99.90;;;;;;4975318;23;20209;-95
2023/12/20 10:51:04;;;;;;;3.08;1.00;;;8.30;99.90;;;;;;4975567;23;20160;-96
2023/12/20 10:53:07;;;;;;;4.13;0.85;;;8.20;99.90;;;;;;4999680;23;20611;-95
2023/12/20 10:55:08;;;;;;;8.27;1.70;;;8.20;99.90;;;;;;4975186;23;20179;-95
2023/12/20 10:57:09;;;;;;;6.25;1.05;;;8.30;99.90;;;;;;4976596;23;20200;-95